sensor_id;sensor_type;location;lat;lon;timestamp;P1;durP1;ratioP1;P2;durP2;ratioP2
56299;SDS011;42209;6.376;-10.782;2023-07-13T00:01:09;3.40;;;3.10;;
56299;SDS011;42209;6.376;-10.782;2023-07-13T00:03:38;3.60;;;3.30;;
56299;SDS011;42209;6.376;-10.782;2023-07-13T00:06:07;3.60;;;3.30;;
56299;SDS011;42209;6.376;-10.782;2023-07-13T00:08:37;3.83;;;3.28;;
56299;SDS011;42209;6.376;-10.782;2023-07-13T00:11:05;4.07;;;3.67;;
56299;SDS011;42209;6.376;-10.782;2023-07-13T00:16:02;4.07;;;3.20;;
56299;SDS011;42209;6.376;-10.782;2023-07-13T00:18:32;4.53;;;4.13;;
56299;SDS011;42209;6.376;-10.782;2023-07-13T00:21:01;3.72;;;3.42;;
56299;SDS011;42209;6.376;-10.782;2023-07-13T00:23:31;3.90;;;3.58;;
56299;SDS011;42209;6.376;-10.782;2023-07-13T00:26:07;3.40;;;3.10;;
56299;SDS011;42209;6.376;-10.782;2023-07-13T00:28:39;3.78;;;3.15;;
56299;SDS011;42209;6.376;-10.782;2023-07-13T00:31:11;2.80;;;2.55;;
56299;SDS011;42209;6.376;-10.782;2023-07-13T00:33:41;3.22;;;2.92;;
56299;SDS011;42209;6.376;-10.782;2023-07-13T00:36:10;3.15;;;2.85;;
56299;SDS011;42209;6.376;-10.782;2023-07-13T00:38:39;3.63;;;3.10;;
56299;SDS011;42209;6.376;-10.782;2023-07-13T00:43:37;3.15;;;2.85;;
56299;SDS011;42209;6.376;-10.782;2023-07-13T00:46:10;3.55;;;3.25;;
56299;SDS011;42209;6.376;-10.782;2023-07-13T00:48:41;3.25;;;2.95;;
56299;SDS011;42209;6.376;-10.782;2023-07-13T00:51:15;3.13;;;2.92;;
56299;SDS011;42209;6.376;-10.782;2023-07-13T00:53:48;3.50;;;3.20;;
56299;SDS011;42209;6.376;-10.782;2023-07-13T00:56:18;3.35;;;3.15;;
56299;SDS011;42209;6.376;-10.782;2023-07-13T00:58:47;3.35;;;3.05;;
56299;SDS011;42209;6.376;-10.782;2023-07-13T01:01:18;3.38;;;3.08;;
56299;SDS011;42209;6.376;-10.782;2023-07-13T01:03:46;3.50;;;2.70;;
56299;SDS011;42209;6.376;-10.782;2023-07-13T01:06:15;3.28;;;2.97;;
56299;SDS011;42209;6.376;-10.782;2023-07-13T01:08:44;4.15;;;3.83;;
56299;SDS011;42209;6.376;-10.782;2023-07-13T01:11:13;3.20;;;2.92;;
56299;SDS011;42209;6.376;-10.782;2023-07-13T01:13:47;3.50;;;3.17;;
56299;SDS011;42209;6.376;-10.782;2023-07-13T01:16:22;3.25;;;2.80;;
56299;SDS011;42209;6.376;-10.782;2023-07-13T01:18:54;3.10;;;2.80;;
56299;SDS011;42209;6.376;-10.782;2023-07-13T01:21:24;3.78;;;2.95;;
56299;SDS011;42209;6.376;-10.782;2023-07-13T01:23:53;2.75;;;2.53;;
56299;SDS011;42209;6.376;-10.782;2023-07-13T01:28:50;3.05;;;2.85;;
56299;SDS011;42209;6.376;-10.782;2023-07-13T01:31:19;2.88;;;2.17;;
56299;SDS011;42209;6.376;-10.782;2023-07-13T01:33:47;2.53;;;2.33;;
56299;SDS011;42209;6.376;-10.782;2023-07-13T01:36:16;2.53;;;2.28;;
56299;SDS011;42209;6.376;-10.782;2023-07-13T01:38:44;3.13;;;2.83;;
56299;SDS011;42209;6.376;-10.782;2023-07-13T01:41:13;2.65;;;2.45;;
56299;SDS011;42209;6.376;-10.782;2023-07-13T01:43:41;2.60;;;2.40;;
56299;SDS011;42209;6.376;-10.782;2023-07-13T01:48:50;2.92;;;2.72;;
56299;SDS011;42209;6.376;-10.782;2023-07-13T01:51:19;2.88;;;2.58;;
56299;SDS011;42209;6.376;-10.782;2023-07-13T01:53:48;3.22;;;2.92;;
56299;SDS011;42209;6.376;-10.782;2023-07-13T01:56:17;3.67;;;3.35;;
56299;SDS011;42209;6.376;-10.782;2023-07-13T01:58:46;2.80;;;2.60;;
56299;SDS011;42209;6.376;-10.782;2023-07-13T02:01:15;3.13;;;2.92;;
56299;SDS011;42209;6.376;-10.782;2023-07-13T02:03:44;2.30;;;2.10;;
56299;SDS011;42209;6.376;-10.782;2023-07-13T02:06:12;1.98;;;1.77;;
56299;SDS011;42209;6.376;-10.782;2023-07-13T02:08:41;2.92;;;2.22;;
56299;SDS011;42209;6.376;-10.782;2023-07-13T02:11:10;2.88;;;2.67;;
56299;SDS011;42209;6.376;-10.782;2023-07-13T02:13:38;2.88;;;2.60;;
56299;SDS011;42209;6.376;-10.782;2023-07-13T02:16:07;2.85;;;2.63;;
56299;SDS011;42209;6.376;-10.782;2023-07-13T02:18:36;2.63;;;2.42;;
56299;SDS011;42209;6.376;-10.782;2023-07-13T02:21:05;2.75;;;2.55;;
56299;SDS011;42209;6.376;-10.782;2023-07-13T02:23:33;2.75;;;2.55;;
56299;SDS011;42209;6.376;-10.782;2023-07-13T02:31:10;2.78;;;2.47;;
56299;SDS011;42209;6.376;-10.782;2023-07-13T02:33:41;2.47;;;2.25;;
56299;SDS011;42209;6.376;-10.782;2023-07-13T02:36:10;2.85;;;2.65;;
56299;SDS011;42209;6.376;-10.782;2023-07-13T02:38:40;3.20;;;2.90;;
56299;SDS011;42209;6.376;-10.782;2023-07-13T02:41:08;2.58;;;2.30;;
56299;SDS011;42209;6.376;-10.782;2023-07-13T02:43:38;2.95;;;2.75;;
56299;SDS011;42209;6.376;-10.782;2023-07-13T02:46:08;2.92;;;2.65;;
56299;SDS011;42209;6.376;-10.782;2023-07-13T02:48:38;2.95;;;2.72;;
56299;SDS011;42209;6.376;-10.782;2023-07-13T02:51:07;3.38;;;3.08;;
56299;SDS011;42209;6.376;-10.782;2023-07-13T02:53:35;3.08;;;2.85;;
56299;SDS011;42209;6.376;-10.782;2023-07-13T02:56:05;2.78;;;2.58;;
56299;SDS011;42209;6.376;-10.782;2023-07-13T02:58:34;3.58;;;3.28;;
56299;SDS011;42209;6.376;-10.782;2023-07-13T03:01:05;3.58;;;3.28;;
56299;SDS011;42209;6.376;-10.782;2023-07-13T03:03:36;2.85;;;2.38;;
56299;SDS011;42209;6.376;-10.782;2023-07-13T03:06:05;2.63;;;2.42;;
56299;SDS011;42209;6.376;-10.782;2023-07-13T03:08:41;2.50;;;2.30;;
56299;SDS011;42209;6.376;-10.782;2023-07-13T03:11:15;2.90;;;2.53;;
56299;SDS011;42209;6.376;-10.782;2023-07-13T03:13:52;2.80;;;2.55;;
56299;SDS011;42209;6.376;-10.782;2023-07-13T03:16:22;3.22;;;3.00;;
56299;SDS011;42209;6.376;-10.782;2023-07-13T03:18:52;2.95;;;2.28;;
56299;SDS011;42209;6.376;-10.782;2023-07-13T03:21:22;2.38;;;2.28;;
56299;SDS011;42209;6.376;-10.782;2023-07-13T03:23:51;2.70;;;2.50;;
56299;SDS011;42209;6.376;-10.782;2023-07-13T03:26:19;2.85;;;2.65;;
56299;SDS011;42209;6.376;-10.782;2023-07-13T03:28:48;3.10;;;2.80;;
56299;SDS011;42209;6.376;-10.782;2023-07-13T03:31:22;2.75;;;2.53;;
56299;SDS011;42209;6.376;-10.782;2023-07-13T03:33:56;2.92;;;2.47;;
56299;SDS011;42209;6.376;-10.782;2023-07-13T03:36:26;2.78;;;2.55;;
56299;SDS011;42209;6.376;-10.782;2023-07-13T03:38:59;2.85;;;2.40;;
56299;SDS011;42209;6.376;-10.782;2023-07-13T03:41:36;2.75;;;2.55;;
56299;SDS011;42209;6.376;-10.782;2023-07-13T03:44:05;2.78;;;2.58;;
56299;SDS011;42209;6.376;-10.782;2023-07-13T03:46:34;4.18;;;2.92;;
56299;SDS011;42209;6.376;-10.782;2023-07-13T03:49:03;3.20;;;2.90;;
56299;SDS011;42209;6.376;-10.782;2023-07-13T03:51:32;3.80;;;2.47;;
56299;SDS011;42209;6.376;-10.782;2023-07-13T03:54:01;2.70;;;2.45;;
56299;SDS011;42209;6.376;-10.782;2023-07-13T04:01:26;3.35;;;2.65;;
56299;SDS011;42209;6.376;-10.782;2023-07-13T04:06:28;3.63;;;2.63;;
56299;SDS011;42209;6.376;-10.782;2023-07-13T04:08:59;2.40;;;2.20;;
56299;SDS011;42209;6.376;-10.782;2023-07-13T04:11:30;2.80;;;2.60;;
56299;SDS011;42209;6.376;-10.782;2023-07-13T04:14:00;3.70;;;2.80;;
56299;SDS011;42209;6.376;-10.782;2023-07-13T04:16:28;3.55;;;2.95;;
56299;SDS011;42209;6.376;-10.782;2023-07-13T04:18:57;3.05;;;2.85;;
56299;SDS011;42209;6.376;-10.782;2023-07-13T04:21:28;2.95;;;2.75;;
56299;SDS011;42209;6.376;-10.782;2023-07-13T04:23:58;2.88;;;2.63;;
56299;SDS011;42209;6.376;-10.782;2023-07-13T04:28:55;3.22;;;2.70;;
56299;SDS011;42209;6.376;-10.782;2023-07-13T04:31:24;2.83;;;2.63;;
56299;SDS011;42209;6.376;-10.782;2023-07-13T04:36:21;2.40;;;2.20;;
56299;SDS011;42209;6.376;-10.782;2023-07-13T04:41:18;2.75;;;2.55;;
56299;SDS011;42209;6.376;-10.782;2023-07-13T04:43:46;3.33;;;3.03;;
56299;SDS011;42209;6.376;-10.782;2023-07-13T04:46:16;2.88;;;2.67;;
56299;SDS011;42209;6.376;-10.782;2023-07-13T04:48:45;3.22;;;2.92;;
56299;SDS011;42209;6.376;-10.782;2023-07-13T04:53:42;4.25;;;2.70;;
56299;SDS011;42209;6.376;-10.782;2023-07-13T04:56:11;3.63;;;3.28;;
56299;SDS011;42209;6.376;-10.782;2023-07-13T04:58:39;2.97;;;2.78;;
56299;SDS011;42209;6.376;-10.782;2023-07-13T05:03:37;3.10;;;2.90;;
56299;SDS011;42209;6.376;-10.782;2023-07-13T05:06:07;2.90;;;2.67;;
56299;SDS011;42209;6.376;-10.782;2023-07-13T05:08:35;2.92;;;2.58;;
56299;SDS011;42209;6.376;-10.782;2023-07-13T05:11:04;2.38;;;2.17;;
56299;SDS011;42209;6.376;-10.782;2023-07-13T05:16:01;3.03;;;2.72;;
56299;SDS011;42209;6.376;-10.782;2023-07-13T05:18:31;3.10;;;2.83;;
56299;SDS011;42209;6.376;-10.782;2023-07-13T05:23:31;3.42;;;2.95;;
56299;SDS011;42209;6.376;-10.782;2023-07-13T05:26:01;2.97;;;2.78;;
56299;SDS011;42209;6.376;-10.782;2023-07-13T05:28:34;3.10;;;2.90;;
56299;SDS011;42209;6.376;-10.782;2023-07-13T05:31:02;2.88;;;2.67;;
56299;SDS011;42209;6.376;-10.782;2023-07-13T05:33:32;3.08;;;2.83;;
56299;SDS011;42209;6.376;-10.782;2023-07-13T05:38:29;3.53;;;2.90;;
56299;SDS011;42209;6.376;-10.782;2023-07-13T05:40:57;2.65;;;2.45;;
56299;SDS011;42209;6.376;-10.782;2023-07-13T05:43:34;2.60;;;2.28;;
56299;SDS011;42209;6.376;-10.782;2023-07-13T05:46:02;2.63;;;2.42;;
56299;SDS011;42209;6.376;-10.782;2023-07-13T05:48:31;2.70;;;2.50;;
56299;SDS011;42209;6.376;-10.782;2023-07-13T05:51:00;3.40;;;3.10;;
56299;SDS011;42209;6.376;-10.782;2023-07-13T05:53:29;3.83;;;3.53;;
56299;SDS011;42209;6.376;-10.782;2023-07-13T05:55:57;3.60;;;3.30;;
56299;SDS011;42209;6.376;-10.782;2023-07-13T05:58:29;2.97;;;2.63;;
56299;SDS011;42209;6.376;-10.782;2023-07-13T06:00:58;3.28;;;2.97;;
56299;SDS011;42209;6.376;-10.782;2023-07-13T06:03:28;3.45;;;3.25;;
56299;SDS011;42209;6.376;-10.782;2023-07-13T06:05:57;2.97;;;2.67;;
56299;SDS011;42209;6.376;-10.782;2023-07-13T06:08:26;3.28;;;2.53;;
56299;SDS011;42209;6.376;-10.782;2023-07-13T06:10:58;2.72;;;2.53;;
56299;SDS011;42209;6.376;-10.782;2023-07-13T06:13:30;3.10;;;2.15;;
56299;SDS011;42209;6.376;-10.782;2023-07-13T06:15:59;3.92;;;2.13;;
56299;SDS011;42209;6.376;-10.782;2023-07-13T06:18:28;2.97;;;2.72;;
56299;SDS011;42209;6.376;-10.782;2023-07-13T06:20:56;4.53;;;2.67;;
56299;SDS011;42209;6.376;-10.782;2023-07-13T07:06:54;3.88;;;3.50;;
56299;SDS011;42209;6.376;-10.782;2023-07-13T07:09:25;3.92;;;3.63;;
56299;SDS011;42209;6.376;-10.782;2023-07-13T07:11:53;3.80;;;3.50;;
56299;SDS011;42209;6.376;-10.782;2023-07-13T07:14:30;4.88;;;4.43;;
56299;SDS011;42209;6.376;-10.782;2023-07-13T07:16:59;4.30;;;3.95;;
56299;SDS011;42209;6.376;-10.782;2023-07-13T07:19:29;4.30;;;3.38;;
56299;SDS011;42209;6.376;-10.782;2023-07-13T07:21:58;4.18;;;3.80;;
56299;SDS011;42209;6.376;-10.782;2023-07-13T07:24:27;4.18;;;3.78;;
56299;SDS011;42209;6.376;-10.782;2023-07-13T07:26:55;4.97;;;4.13;;
56299;SDS011;42209;6.376;-10.782;2023-07-13T07:29:26;4.13;;;3.72;;
56299;SDS011;42209;6.376;-10.782;2023-07-13T07:31:58;4.00;;;3.70;;
56299;SDS011;42209;6.376;-10.782;2023-07-13T07:34:32;4.47;;;4.07;;
56299;SDS011;42209;6.376;-10.782;2023-07-13T07:37:01;4.43;;;3.92;;
56299;SDS011;42209;6.376;-10.782;2023-07-13T07:39:33;4.47;;;4.18;;
56299;SDS011;42209;6.376;-10.782;2023-07-13T07:44:31;4.43;;;4.13;;
56299;SDS011;42209;6.376;-10.782;2023-07-13T07:47:00;4.68;;;4.18;;
56299;SDS011;42209;6.376;-10.782;2023-07-13T07:49:30;3.72;;;3.42;;
56299;SDS011;42209;6.376;-10.782;2023-07-13T07:51:58;4.00;;;3.67;;
56299;SDS011;42209;6.376;-10.782;2023-07-13T07:54:27;3.72;;;3.42;;
56299;SDS011;42209;6.376;-10.782;2023-07-13T07:57:15;4.45;;;3.88;;
56299;SDS011;42209;6.376;-10.782;2023-07-13T08:00:04;4.35;;;4.00;;
56299;SDS011;42209;6.376;-10.782;2023-07-13T08:02:43;4.53;;;4.07;;
56299;SDS011;42209;6.376;-10.782;2023-07-13T08:05:14;4.38;;;3.97;;
56299;SDS011;42209;6.376;-10.782;2023-07-13T08:07:46;4.57;;;4.28;;
56299;SDS011;42209;6.376;-10.782;2023-07-13T08:10:15;5.00;;;4.50;;
56299;SDS011;42209;6.376;-10.782;2023-07-13T08:12:44;4.90;;;4.50;;
56299;SDS011;42209;6.376;-10.782;2023-07-13T08:15:32;4.30;;;3.90;;
56299;SDS011;42209;6.376;-10.782;2023-07-13T08:20:29;4.28;;;3.88;;
56299;SDS011;42209;6.376;-10.782;2023-07-13T08:25:26;5.47;;;4.97;;
56299;SDS011;42209;6.376;-10.782;2023-07-13T08:27:54;4.97;;;4.47;;
56299;SDS011;42209;6.376;-10.782;2023-07-13T08:30:25;4.20;;;3.90;;
56299;SDS011;42209;6.376;-10.782;2023-07-13T08:32:54;4.78;;;4.43;;
56299;SDS011;42209;6.376;-10.782;2023-07-13T08:37:43;5.93;;;5.32;;
56299;SDS011;42209;6.376;-10.782;2023-07-13T08:40:12;6.80;;;5.90;;
56299;SDS011;42209;6.376;-10.782;2023-07-13T08:42:54;6.55;;;5.93;;
56299;SDS011;42209;6.376;-10.782;2023-07-13T08:45:28;7.53;;;6.82;;
56299;SDS011;42209;6.376;-10.782;2023-07-13T08:48:32;7.47;;;6.78;;
56299;SDS011;42209;6.376;-10.782;2023-07-13T08:54:26;6.90;;;6.25;;
56299;SDS011;42209;6.376;-10.782;2023-07-13T08:56:56;6.35;;;5.57;;
56299;SDS011;42209;6.376;-10.782;2023-07-13T08:59:27;6.22;;;5.65;;
56299;SDS011;42209;6.376;-10.782;2023-07-13T09:05:21;6.03;;;5.50;;
56299;SDS011;42209;6.376;-10.782;2023-07-13T09:08:09;5.90;;;5.40;;
56299;SDS011;42209;6.376;-10.782;2023-07-13T09:10:46;6.05;;;5.45;;
56299;SDS011;42209;6.376;-10.782;2023-07-13T09:16:28;6.78;;;6.18;;
56299;SDS011;42209;6.376;-10.782;2023-07-13T09:21:30;7.45;;;6.80;;
56299;SDS011;42209;6.376;-10.782;2023-07-13T09:24:28;7.38;;;6.65;;
56299;SDS011;42209;6.376;-10.782;2023-07-13T09:29:50;7.05;;;6.32;;
56299;SDS011;42209;6.376;-10.782;2023-07-13T09:32:25;9.18;;;6.45;;
56299;SDS011;42209;6.376;-10.782;2023-07-13T09:34:55;6.88;;;6.28;;
56299;SDS011;42209;6.376;-10.782;2023-07-13T09:37:27;6.40;;;5.80;;
56299;SDS011;42209;6.376;-10.782;2023-07-13T09:39:59;6.85;;;6.20;;
56299;SDS011;42209;6.376;-10.782;2023-07-13T09:42:30;8.48;;;7.13;;
56299;SDS011;42209;6.376;-10.782;2023-07-13T09:45:00;8.25;;;7.53;;
56299;SDS011;42209;6.376;-10.782;2023-07-13T09:47:32;7.97;;;7.18;;
56299;SDS011;42209;6.376;-10.782;2023-07-13T09:50:10;8.85;;;8.00;;
56299;SDS011;42209;6.376;-10.782;2023-07-13T09:52:48;10.02;;;8.75;;
56299;SDS011;42209;6.376;-10.782;2023-07-13T09:55:25;10.25;;;9.00;;
56299;SDS011;42209;6.376;-10.782;2023-07-13T09:57:54;8.60;;;7.65;;
56299;SDS011;42209;6.376;-10.782;2023-07-13T10:00:28;8.55;;;7.78;;
56299;SDS011;42209;6.376;-10.782;2023-07-13T10:03:00;8.15;;;7.03;;
56299;SDS011;42209;6.376;-10.782;2023-07-13T10:05:49;9.43;;;8.50;;
56299;SDS011;42209;6.376;-10.782;2023-07-13T10:08:29;9.82;;;8.82;;
56299;SDS011;42209;6.376;-10.782;2023-07-13T10:10:59;13.00;;;9.43;;
56299;SDS011;42209;6.376;-10.782;2023-07-13T10:13:31;9.57;;;8.68;;
56299;SDS011;42209;6.376;-10.782;2023-07-13T10:16:06;9.25;;;8.32;;
56299;SDS011;42209;6.376;-10.782;2023-07-13T10:21:29;10.38;;;9.48;;
56299;SDS011;42209;6.376;-10.782;2023-07-13T10:24:17;11.38;;;9.20;;
56299;SDS011;42209;6.376;-10.782;2023-07-13T10:29:24;10.07;;;9.18;;
56299;SDS011;42209;6.376;-10.782;2023-07-13T10:31:55;9.88;;;8.98;;
56299;SDS011;42209;6.376;-10.782;2023-07-13T10:34:26;9.68;;;8.68;;
56299;SDS011;42209;6.376;-10.782;2023-07-13T10:36:58;9.60;;;7.82;;
56299;SDS011;42209;6.376;-10.782;2023-07-13T10:39:29;8.02;;;7.32;;
56299;SDS011;42209;6.376;-10.782;2023-07-13T10:41:59;8.98;;;8.15;;
56299;SDS011;42209;6.376;-10.782;2023-07-13T10:44:39;8.40;;;7.60;;
56299;SDS011;42209;6.376;-10.782;2023-07-13T10:47:08;8.57;;;7.60;;
56299;SDS011;42209;6.376;-10.782;2023-07-13T10:49:41;8.95;;;8.05;;
56299;SDS011;42209;6.376;-10.782;2023-07-13T10:57:59;8.10;;;7.35;;
56299;SDS011;42209;6.376;-10.782;2023-07-13T11:00:43;8.23;;;7.43;;
56299;SDS011;42209;6.376;-10.782;2023-07-13T11:03:50;9.80;;;7.38;;
56299;SDS011;42209;6.376;-10.782;2023-07-13T11:08:58;9.35;;;8.25;;
56299;SDS011;42209;6.376;-10.782;2023-07-13T11:11:45;11.07;;;8.38;;
56299;SDS011;42209;6.376;-10.782;2023-07-13T11:22:44;8.07;;;7.28;;
56299;SDS011;42209;6.376;-10.782;2023-07-13T11:25:31;8.10;;;7.35;;
56299;SDS011;42209;6.376;-10.782;2023-07-13T11:33:16;7.68;;;6.97;;
56299;SDS011;42209;6.376;-10.782;2023-07-13T11:36:03;7.00;;;6.40;;
56299;SDS011;42209;6.376;-10.782;2023-07-13T11:38:43;7.80;;;7.00;;
56299;SDS011;42209;6.376;-10.782;2023-07-13T11:41:29;8.45;;;7.75;;
56299;SDS011;42209;6.376;-10.782;2023-07-13T11:46:52;7.20;;;6.60;;
56299;SDS011;42209;6.376;-10.782;2023-07-13T11:49:26;7.25;;;6.68;;
56299;SDS011;42209;6.376;-10.782;2023-07-13T11:52:02;8.98;;;8.15;;
56299;SDS011;42209;6.376;-10.782;2023-07-13T11:54:33;8.30;;;7.50;;
56299;SDS011;42209;6.376;-10.782;2023-07-13T11:57:26;7.78;;;7.03;;
56299;SDS011;42209;6.376;-10.782;2023-07-13T12:02:55;6.78;;;6.03;;
56299;SDS011;42209;6.376;-10.782;2023-07-13T12:05:26;6.63;;;6.03;;
56299;SDS011;42209;6.376;-10.782;2023-07-13T12:07:55;5.90;;;5.30;;
56299;SDS011;42209;6.376;-10.782;2023-07-13T12:12:58;7.40;;;6.70;;
56299;SDS011;42209;6.376;-10.782;2023-07-13T12:15:38;6.60;;;6.00;;
56299;SDS011;42209;6.376;-10.782;2023-07-13T12:18:51;6.90;;;6.32;;
56299;SDS011;42209;6.376;-10.782;2023-07-13T12:21:11;7.13;;;6.45;;
56299;SDS011;42209;6.376;-10.782;2023-07-13T12:23:42;7.28;;;6.68;;
56299;SDS011;42209;6.376;-10.782;2023-07-13T12:26:13;5.82;;;5.35;;
56299;SDS011;42209;6.376;-10.782;2023-07-13T12:34:19;7.03;;;6.45;;
56299;SDS011;42209;6.376;-10.782;2023-07-13T12:39:37;5.97;;;5.38;;
56299;SDS011;42209;6.376;-10.782;2023-07-13T12:42:21;6.50;;;5.97;;
56299;SDS011;42209;6.376;-10.782;2023-07-13T12:45:03;6.85;;;6.25;;
56299;SDS011;42209;6.376;-10.782;2023-07-13T12:47:42;6.72;;;6.18;;
56299;SDS011;42209;6.376;-10.782;2023-07-13T12:50:20;6.75;;;6.10;;
56299;SDS011;42209;6.376;-10.782;2023-07-13T12:52:54;6.53;;;6.03;;
56299;SDS011;42209;6.376;-10.782;2023-07-13T12:55:28;6.03;;;5.63;;
56299;SDS011;42209;6.376;-10.782;2023-07-13T12:57:59;5.45;;;5.05;;
56299;SDS011;42209;6.376;-10.782;2023-07-13T13:00:32;5.90;;;5.40;;
56299;SDS011;42209;6.376;-10.782;2023-07-13T13:03:05;6.63;;;6.05;;
56299;SDS011;42209;6.376;-10.782;2023-07-13T13:05:57;6.10;;;5.55;;
56299;SDS011;42209;6.376;-10.782;2023-07-13T13:08:27;5.72;;;5.13;;
56299;SDS011;42209;6.376;-10.782;2023-07-13T13:13:24;6.40;;;5.80;;
56299;SDS011;42209;6.376;-10.782;2023-07-13T13:18:23;6.38;;;5.88;;
56299;SDS011;42209;6.376;-10.782;2023-07-13T13:20:54;6.03;;;5.53;;
56299;SDS011;42209;6.376;-10.782;2023-07-13T13:23:23;6.50;;;5.35;;
56299;SDS011;42209;6.376;-10.782;2023-07-13T13:26:00;5.75;;;5.25;;
56299;SDS011;42209;6.376;-10.782;2023-07-13T13:28:31;5.57;;;5.15;;
56299;SDS011;42209;6.376;-10.782;2023-07-13T13:31:00;4.97;;;4.57;;
56299;SDS011;42209;6.376;-10.782;2023-07-13T13:33:35;5.22;;;4.80;;
56299;SDS011;42209;6.376;-10.782;2023-07-13T13:36:03;5.20;;;4.72;;
56299;SDS011;42209;6.376;-10.782;2023-07-13T13:38:35;5.30;;;4.90;;
56299;SDS011;42209;6.376;-10.782;2023-07-13T13:41:05;5.18;;;4.68;;
56299;SDS011;42209;6.376;-10.782;2023-07-13T13:43:35;5.65;;;5.15;;
56299;SDS011;42209;6.376;-10.782;2023-07-13T13:46:11;5.40;;;5.00;;
56299;SDS011;42209;6.376;-10.782;2023-07-13T13:48:43;5.60;;;5.15;;
56299;SDS011;42209;6.376;-10.782;2023-07-13T13:51:19;5.57;;;5.07;;
56299;SDS011;42209;6.376;-10.782;2023-07-13T13:53:50;5.63;;;5.13;;
56299;SDS011;42209;6.376;-10.782;2023-07-13T13:56:20;4.88;;;4.47;;
56299;SDS011;42209;6.376;-10.782;2023-07-13T13:58:50;5.68;;;4.82;;
56299;SDS011;42209;6.376;-10.782;2023-07-13T14:01:20;4.38;;;3.97;;
56299;SDS011;42209;6.376;-10.782;2023-07-13T14:03:56;4.75;;;4.35;;
56299;SDS011;42209;6.376;-10.782;2023-07-13T14:06:38;5.32;;;4.82;;
56299;SDS011;42209;6.376;-10.782;2023-07-13T14:09:11;5.30;;;4.85;;
56299;SDS011;42209;6.376;-10.782;2023-07-13T14:11:42;5.00;;;4.60;;
56299;SDS011;42209;6.376;-10.782;2023-07-13T14:14:16;5.22;;;4.82;;
56299;SDS011;42209;6.376;-10.782;2023-07-13T14:16:52;5.10;;;4.60;;
56299;SDS011;42209;6.376;-10.782;2023-07-13T14:19:22;5.50;;;4.97;;
56299;SDS011;42209;6.376;-10.782;2023-07-13T14:21:51;5.40;;;4.90;;
56299;SDS011;42209;6.376;-10.782;2023-07-13T14:24:21;4.47;;;4.18;;
56299;SDS011;42209;6.376;-10.782;2023-07-13T14:26:50;4.63;;;4.00;;
56299;SDS011;42209;6.376;-10.782;2023-07-13T14:29:20;4.88;;;3.67;;
56299;SDS011;42209;6.376;-10.782;2023-07-13T14:31:51;3.95;;;3.42;;
56299;SDS011;42209;6.376;-10.782;2023-07-13T14:34:23;4.00;;;3.63;;
56299;SDS011;42209;6.376;-10.782;2023-07-13T14:36:52;3.88;;;3.58;;
56299;SDS011;42209;6.376;-10.782;2023-07-13T14:39:24;5.60;;;4.43;;
56299;SDS011;42209;6.376;-10.782;2023-07-13T14:41:53;4.28;;;3.97;;
56299;SDS011;42209;6.376;-10.782;2023-07-13T14:44:32;4.47;;;4.07;;
56299;SDS011;42209;6.376;-10.782;2023-07-13T14:47:03;5.53;;;4.32;;
56299;SDS011;42209;6.376;-10.782;2023-07-13T14:49:37;4.35;;;4.00;;
56299;SDS011;42209;6.376;-10.782;2023-07-13T14:52:12;5.28;;;4.45;;
56299;SDS011;42209;6.376;-10.782;2023-07-13T14:54:49;4.00;;;3.70;;
56299;SDS011;42209;6.376;-10.782;2023-07-13T14:57:19;3.40;;;3.05;;
56299;SDS011;42209;6.376;-10.782;2023-07-13T14:59:48;3.72;;;3.42;;
56299;SDS011;42209;6.376;-10.782;2023-07-13T15:02:45;4.05;;;3.72;;
56299;SDS011;42209;6.376;-10.782;2023-07-13T15:05:21;5.93;;;3.42;;
56299;SDS011;42209;6.376;-10.782;2023-07-13T15:07:56;4.15;;;3.85;;
56299;SDS011;42209;6.376;-10.782;2023-07-13T15:10:29;4.15;;;3.75;;
56299;SDS011;42209;6.376;-10.782;2023-07-13T15:13:01;4.28;;;3.97;;
56299;SDS011;42209;6.376;-10.782;2023-07-13T15:15:47;4.18;;;3.78;;
56299;SDS011;42209;6.376;-10.782;2023-07-13T15:18:23;3.63;;;3.33;;
56299;SDS011;42209;6.376;-10.782;2023-07-13T15:21:00;3.95;;;3.50;;
56299;SDS011;42209;6.376;-10.782;2023-07-13T15:23:33;4.38;;;3.92;;
56299;SDS011;42209;6.376;-10.782;2023-07-13T15:26:02;4.63;;;3.97;;
56299;SDS011;42209;6.376;-10.782;2023-07-13T15:28:31;3.97;;;3.50;;
56299;SDS011;42209;6.376;-10.782;2023-07-13T15:31:00;4.10;;;3.70;;
56299;SDS011;42209;6.376;-10.782;2023-07-13T15:35:59;3.55;;;3.00;;
56299;SDS011;42209;6.376;-10.782;2023-07-13T15:38:28;3.42;;;3.13;;
56299;SDS011;42209;6.376;-10.782;2023-07-13T15:40:58;3.80;;;3.45;;
56299;SDS011;42209;6.376;-10.782;2023-07-13T15:46:00;3.60;;;3.30;;
56299;SDS011;42209;6.376;-10.782;2023-07-13T15:48:33;3.70;;;3.20;;
56299;SDS011;42209;6.376;-10.782;2023-07-13T15:51:09;4.18;;;3.78;;
56299;SDS011;42209;6.376;-10.782;2023-07-13T15:53:48;4.30;;;3.90;;
56299;SDS011;42209;6.376;-10.782;2023-07-13T15:56:25;4.28;;;3.97;;
56299;SDS011;42209;6.376;-10.782;2023-07-13T15:59:02;4.13;;;3.72;;
56299;SDS011;42209;6.376;-10.782;2023-07-13T16:01:30;4.15;;;3.75;;
56299;SDS011;42209;6.376;-10.782;2023-07-13T16:04:00;3.85;;;3.38;;
56299;SDS011;42209;6.376;-10.782;2023-07-13T16:06:32;3.95;;;3.20;;
56299;SDS011;42209;6.376;-10.782;2023-07-13T16:09:05;3.15;;;2.92;;
56299;SDS011;42209;6.376;-10.782;2023-07-13T16:11:37;3.50;;;2.72;;
56299;SDS011;42209;6.376;-10.782;2023-07-13T16:14:08;3.95;;;3.42;;
56299;SDS011;42209;6.376;-10.782;2023-07-13T16:16:40;4.38;;;3.65;;
56299;SDS011;42209;6.376;-10.782;2023-07-13T16:19:10;3.53;;;3.22;;
56299;SDS011;42209;6.376;-10.782;2023-07-13T16:21:40;4.40;;;3.70;;
56299;SDS011;42209;6.376;-10.782;2023-07-13T16:24:29;4.05;;;3.63;;
56299;SDS011;42209;6.376;-10.782;2023-07-13T16:27:00;4.25;;;3.95;;
56299;SDS011;42209;6.376;-10.782;2023-07-13T16:29:30;4.07;;;3.72;;
56299;SDS011;42209;6.376;-10.782;2023-07-13T16:34:30;3.50;;;2.65;;
56299;SDS011;42209;6.376;-10.782;2023-07-13T16:37:09;3.33;;;3.03;;
56299;SDS011;42209;6.376;-10.782;2023-07-13T16:39:55;3.30;;;3.00;;
56299;SDS011;42209;6.376;-10.782;2023-07-13T16:42:25;3.55;;;3.20;;
56299;SDS011;42209;6.376;-10.782;2023-07-13T16:44:54;3.13;;;2.83;;
56299;SDS011;42209;6.376;-10.782;2023-07-13T16:50:32;3.88;;;3.22;;
56299;SDS011;42209;6.376;-10.782;2023-07-13T16:53:01;3.35;;;2.97;;
56299;SDS011;42209;6.376;-10.782;2023-07-13T16:55:29;3.92;;;3.63;;
56299;SDS011;42209;6.376;-10.782;2023-07-13T16:57:59;3.97;;;3.55;;
56299;SDS011;42209;6.376;-10.782;2023-07-13T17:00:29;3.72;;;3.35;;
56299;SDS011;42209;6.376;-10.782;2023-07-13T17:03:00;3.58;;;3.20;;
56299;SDS011;42209;6.376;-10.782;2023-07-13T17:05:31;3.83;;;3.50;;
56299;SDS011;42209;6.376;-10.782;2023-07-13T17:08:09;5.00;;;3.70;;
56299;SDS011;42209;6.376;-10.782;2023-07-13T17:10:39;3.72;;;3.42;;
56299;SDS011;42209;6.376;-10.782;2023-07-13T17:13:09;4.32;;;3.55;;
56299;SDS011;42209;6.376;-10.782;2023-07-13T17:15:39;5.13;;;3.90;;
56299;SDS011;42209;6.376;-10.782;2023-07-13T17:18:08;4.10;;;3.70;;
56299;SDS011;42209;6.376;-10.782;2023-07-13T17:20:39;3.88;;;3.47;;
56299;SDS011;42209;6.376;-10.782;2023-07-13T17:23:19;4.82;;;4.00;;
56299;SDS011;42209;6.376;-10.782;2023-07-13T17:25:50;4.22;;;3.92;;
56299;SDS011;42209;6.376;-10.782;2023-07-13T17:28:20;3.67;;;3.38;;
56299;SDS011;42209;6.376;-10.782;2023-07-13T17:30:52;3.72;;;3.42;;
56299;SDS011;42209;6.376;-10.782;2023-07-13T17:33:26;3.92;;;3.25;;
56299;SDS011;42209;6.376;-10.782;2023-07-13T17:36:13;3.78;;;3.47;;
56299;SDS011;42209;6.376;-10.782;2023-07-13T17:38:44;4.43;;;4.03;;
56299;SDS011;42209;6.376;-10.782;2023-07-13T17:41:14;4.45;;;4.05;;
56299;SDS011;42209;6.376;-10.782;2023-07-13T17:43:43;4.25;;;3.25;;
56299;SDS011;42209;6.376;-10.782;2023-07-13T17:46:19;4.63;;;3.80;;
56299;SDS011;42209;6.376;-10.782;2023-07-13T17:48:54;5.15;;;4.07;;
56299;SDS011;42209;6.376;-10.782;2023-07-13T17:51:24;4.93;;;4.43;;
56299;SDS011;42209;6.376;-10.782;2023-07-13T17:56:25;5.15;;;4.63;;